sensor_id;sensor_type;location;lat;lon;timestamp;pressure;altitude;pressure_sealevel;temperature;humidity
44872;BME280;30602;51.060;17.226;2023-02-28T00:00:17;103026.27;;;-0.54;86.82
44872;BME280;30602;51.060;17.226;2023-02-28T00:07:57;103025.27;;;-0.56;86.16
44872;BME280;30602;51.060;17.226;2023-02-28T00:11:58;103019.32;;;-0.62;86.99
44872;BME280;30602;51.060;17.226;2023-02-28T00:16:11;103017.41;;;-0.60;86.66
44872;BME280;30602;51.060;17.226;2023-02-28T00:20:45;103018.16;;;-0.59;85.11
44872;BME280;30602;51.060;17.226;2023-02-28T00:24:55;103018.54;;;-0.55;84.14
44872;BME280;30602;51.060;17.226;2023-02-28T00:32:36;103017.31;;;-0.51;82.36
44872;BME280;30602;51.060;17.226;2023-02-28T00:36:14;103020.31;;;-0.54;82.16
44872;BME280;30602;51.060;17.226;2023-02-28T00:39:59;103016.11;;;-0.58;82.83
44872;BME280;30602;51.060;17.226;2023-02-28T00:43:56;103006.29;;;-0.62;81.36
44872;BME280;30602;51.060;17.226;2023-02-28T00:47:42;103010.70;;;-0.55;79.59
44872;BME280;30602;51.060;17.226;2023-02-28T00:51:30;103009.25;;;-0.59;81.51
44872;BME280;30602;51.060;17.226;2023-02-28T00:54:58;103012.13;;;-0.64;82.40
44872;BME280;30602;51.060;17.226;2023-02-28T00:58:28;103014.15;;;-0.60;82.21
44872;BME280;30602;51.060;17.226;2023-02-28T01:02:22;103011.72;;;-0.61;82.25
44872;BME280;30602;51.060;17.226;2023-02-28T01:05:46;103010.74;;;-0.59;83.07
44872;BME280;30602;51.060;17.226;2023-02-28T01:09:33;103005.08;;;-0.61;83.48
44872;BME280;30602;51.060;17.226;2023-02-28T01:13:18;103008.09;;;-0.56;83.30
44872;BME280;30602;51.060;17.226;2023-02-28T01:16:55;103008.77;;;-0.58;83.13
44872;BME280;30602;51.060;17.226;2023-02-28T01:20:25;103005.12;;;-0.66;83.35
44872;BME280;30602;51.060;17.226;2023-02-28T01:28:41;103005.80;;;-0.72;84.43
44872;BME280;30602;51.060;17.226;2023-02-28T01:32:43;103005.17;;;-0.81;85.05
44872;BME280;30602;51.060;17.226;2023-02-28T01:36:40;103003.55;;;-0.88;84.45
44872;BME280;30602;51.060;17.226;2023-02-28T01:40:00;103000.46;;;-0.87;83.57
44872;BME280;30602;51.060;17.226;2023-02-28T01:43:29;102999.72;;;-0.95;84.34
44872;BME280;30602;51.060;17.226;2023-02-28T01:47:41;102999.89;;;-0.99;85.12
44872;BME280;30602;51.060;17.226;2023-02-28T01:51:45;103001.55;;;-0.97;85.76
44872;BME280;30602;51.060;17.226;2023-02-28T01:55:29;102996.14;;;-1.02;86.08
44872;BME280;30602;51.060;17.226;2023-02-28T01:59:43;103002.54;;;-1.06;85.47
44872;BME280;30602;51.060;17.226;2023-02-28T02:03:31;103000.98;;;-1.01;84.08
44872;BME280;30602;51.060;17.226;2023-02-28T02:07:43;103002.98;;;-0.99;84.64
44872;BME280;30602;51.060;17.226;2023-02-28T02:11:11;103006.38;;;-1.01;84.53
44872;BME280;30602;51.060;17.226;2023-02-28T02:18:23;103003.73;;;-0.90;82.99
44872;BME280;30602;51.060;17.226;2023-02-28T02:30:08;103001.37;;;-0.88;85.47
44872;BME280;30602;51.060;17.226;2023-02-28T02:46:45;102997.36;;;-1.02;84.99
44872;BME280;30602;51.060;17.226;2023-02-28T02:50:38;102995.52;;;-1.00;84.97
44872;BME280;30602;51.060;17.226;2023-02-28T02:54:30;102992.05;;;-1.01;85.21
44872;BME280;30602;51.060;17.226;2023-02-28T03:02:00;102994.46;;;-1.01;84.56
44872;BME280;30602;51.060;17.226;2023-02-28T03:05:49;102992.66;;;-1.04;84.64
44872;BME280;30602;51.060;17.226;2023-02-28T03:09:09;102993.29;;;-1.04;84.70
44872;BME280;30602;51.060;17.226;2023-02-28T03:13:00;102997.95;;;-1.14;84.82
44872;BME280;30602;51.060;17.226;2023-02-28T03:17:35;102999.01;;;-1.20;84.94
44872;BME280;30602;51.060;17.226;2023-02-28T03:28:53;103001.69;;;-1.19;83.82
44872;BME280;30602;51.060;17.226;2023-02-28T03:32:44;103006.16;;;-1.19;84.08
44872;BME280;30602;51.060;17.226;2023-02-28T03:36:17;103013.73;;;-1.25;84.58
44872;BME280;30602;51.060;17.226;2023-02-28T03:40:05;103010.50;;;-1.29;84.90
44872;BME280;30602;51.060;17.226;2023-02-28T03:43:59;103013.91;;;-1.27;85.04
44872;BME280;30602;51.060;17.226;2023-02-28T03:52:07;103017.34;;;-1.25;84.89
44872;BME280;30602;51.060;17.226;2023-02-28T04:00:08;103021.78;;;-1.32;85.67
44872;BME280;30602;51.060;17.226;2023-02-28T04:03:55;103019.80;;;-1.40;85.09
44872;BME280;30602;51.060;17.226;2023-02-28T04:07:48;103020.47;;;-1.41;85.67
44872;BME280;30602;51.060;17.226;2023-02-28T04:11:40;103021.18;;;-1.45;85.90
44872;BME280;30602;51.060;17.226;2023-02-28T04:15:32;103025.69;;;-1.46;85.81
44872;BME280;30602;51.060;17.226;2023-02-28T04:19:12;103027.30;;;-1.43;86.15
44872;BME280;30602;51.060;17.226;2023-02-28T04:23:06;103031.57;;;-1.52;86.51
44872;BME280;30602;51.060;17.226;2023-02-28T04:26:56;103029.62;;;-1.53;86.82
44872;BME280;30602;51.060;17.226;2023-02-28T04:30:21;103033.46;;;-1.56;86.87
44872;BME280;30602;51.060;17.226;2023-02-28T04:33:52;103033.62;;;-1.56;86.50
44872;BME280;30602;51.060;17.226;2023-02-28T04:38:02;103036.95;;;-1.57;86.57
44872;BME280;30602;51.060;17.226;2023-02-28T04:41:46;103038.33;;;-1.61;86.16
44872;BME280;30602;51.060;17.226;2023-02-28T04:45:43;103038.20;;;-1.56;85.59
44872;BME280;30602;51.060;17.226;2023-02-28T04:49:14;103039.11;;;-1.45;85.23
44872;BME280;30602;51.060;17.226;2023-02-28T04:52:59;103039.69;;;-1.41;85.25
44872;BME280;30602;51.060;17.226;2023-02-28T04:56:43;103041.84;;;-1.49;85.86
44872;BME280;30602;51.060;17.226;2023-02-28T05:00:39;103043.20;;;-1.54;85.14
44872;BME280;30602;51.060;17.226;2023-02-28T05:04:37;103040.87;;;-1.53;84.42
44872;BME280;30602;51.060;17.226;2023-02-28T05:08:35;103040.97;;;-1.49;83.86
44872;BME280;30602;51.060;17.226;2023-02-28T05:12:26;103044.77;;;-1.53;84.47
44872;BME280;30602;51.060;17.226;2023-02-28T05:16:44;103041.34;;;-1.58;84.84
44872;BME280;30602;51.060;17.226;2023-02-28T05:20:26;103047.91;;;-1.48;84.80
44872;BME280;30602;51.060;17.226;2023-02-28T05:24:19;103046.74;;;-1.52;85.08
44872;BME280;30602;51.060;17.226;2023-02-28T05:28:50;103049.82;;;-1.52;85.17
44872;BME280;30602;51.060;17.226;2023-02-28T05:32:50;103056.75;;;-1.54;85.74
44872;BME280;30602;51.060;17.226;2023-02-28T05:37:00;103061.28;;;-1.56;86.23
44872;BME280;30602;51.060;17.226;2023-02-28T05:41:32;103066.17;;;-1.61;86.66
44872;BME280;30602;51.060;17.226;2023-02-28T05:45:13;103065.67;;;-1.61;85.07
44872;BME280;30602;51.060;17.226;2023-02-28T05:49:06;103067.48;;;-1.55;84.61
44872;BME280;30602;51.060;17.226;2023-02-28T05:52:41;103070.57;;;-1.54;84.62
44872;BME280;30602;51.060;17.226;2023-02-28T05:56:17;103072.64;;;-1.52;84.80
44872;BME280;30602;51.060;17.226;2023-02-28T05:59:51;103076.86;;;-1.56;85.48
44872;BME280;30602;51.060;17.226;2023-02-28T06:03:38;103081.99;;;-1.58;85.86
44872;BME280;30602;51.060;17.226;2023-02-28T06:07:54;103088.58;;;-1.49;86.47
44872;BME280;30602;51.060;17.226;2023-02-28T06:11:31;103093.66;;;-1.35;85.87
44872;BME280;30602;51.060;17.226;2023-02-28T06:14:52;103092.31;;;-1.33;85.86
44872;BME280;30602;51.060;17.226;2023-02-28T06:18:47;103101.33;;;-1.28;85.88
44872;BME280;30602;51.060;17.226;2023-02-28T06:22:26;103099.38;;;-1.20;86.07
44872;BME280;30602;51.060;17.226;2023-02-28T06:26:09;103099.45;;;-1.23;86.08
44872;BME280;30602;51.060;17.226;2023-02-28T06:29:53;103099.31;;;-1.25;85.08
44872;BME280;30602;51.060;17.226;2023-02-28T06:33:19;103103.70;;;-1.24;83.72
44872;BME280;30602;51.060;17.226;2023-02-28T06:37:12;103104.23;;;-1.22;82.85
44872;BME280;30602;51.060;17.226;2023-02-28T06:41:05;103108.97;;;-1.15;81.51
44872;BME280;30602;51.060;17.226;2023-02-28T06:44:30;103113.77;;;-1.09;80.62
44872;BME280;30602;51.060;17.226;2023-02-28T06:48:29;103115.72;;;-1.09;79.31
44872;BME280;30602;51.060;17.226;2023-02-28T06:56:24;103119.94;;;-0.97;75.92
44872;BME280;30602;51.060;17.226;2023-02-28T07:00:08;103119.88;;;-0.97;75.84
44872;BME280;30602;51.060;17.226;2023-02-28T07:03:42;103125.13;;;-0.92;75.60
44872;BME280;30602;51.060;17.226;2023-02-28T07:07:09;103124.65;;;-0.88;73.30
44872;BME280;30602;51.060;17.226;2023-02-28T07:10:43;103124.83;;;-0.81;72.44
44872;BME280;30602;51.060;17.226;2023-02-28T07:14:09;103125.34;;;-0.73;70.68
44872;BME280;30602;51.060;17.226;2023-02-28T07:17:31;103126.35;;;-0.59;70.69
44872;BME280;30602;51.060;17.226;2023-02-28T07:25:07;103120.66;;;-0.14;68.69
44872;BME280;30602;51.060;17.226;2023-02-28T07:28:38;103125.83;;;-0.04;68.49
44872;BME280;30602;51.060;17.226;2023-02-28T07:32:28;103123.03;;;0.01;68.15
44872;BME280;30602;51.060;17.226;2023-02-28T07:36:31;103129.97;;;0.15;67.72
44872;BME280;30602;51.060;17.226;2023-02-28T07:39:50;103132.44;;;0.15;68.04
44872;BME280;30602;51.060;17.226;2023-02-28T07:43:54;103130.12;;;0.11;68.67
44872;BME280;30602;51.060;17.226;2023-02-28T07:47:39;103136.28;;;0.11;68.82
44872;BME280;30602;51.060;17.226;2023-02-28T07:51:25;103136.41;;;0.11;65.03
44872;BME280;30602;51.060;17.226;2023-02-28T07:55:09;103130.88;;;0.29;65.61
44872;BME280;30602;51.060;17.226;2023-02-28T07:58:34;103127.11;;;0.37;64.03
44872;BME280;30602;51.060;17.226;2023-02-28T08:02:18;103127.59;;;0.45;65.61
44872;BME280;30602;51.060;17.226;2023-02-28T08:06:15;103128.00;;;0.57;64.41
44872;BME280;30602;51.060;17.226;2023-02-28T08:09:36;103125.88;;;0.61;64.34
44872;BME280;30602;51.060;17.226;2023-02-28T08:12:55;103127.10;;;0.67;63.98
44872;BME280;30602;51.060;17.226;2023-02-28T08:16:16;103121.85;;;0.77;63.24
44872;BME280;30602;51.060;17.226;2023-02-28T08:20:00;103122.34;;;0.79;62.34
44872;BME280;30602;51.060;17.226;2023-02-28T08:23:21;103122.48;;;0.84;60.11
44872;BME280;30602;51.060;17.226;2023-02-28T08:27:13;103116.48;;;0.94;59.68
44872;BME280;30602;51.060;17.226;2023-02-28T08:31:15;103120.86;;;1.12;58.69
44872;BME280;30602;51.060;17.226;2023-02-28T08:34:42;103117.87;;;1.10;58.74
44872;BME280;30602;51.060;17.226;2023-02-28T08:38:53;103120.13;;;1.25;57.53
44872;BME280;30602;51.060;17.226;2023-02-28T08:42:15;103122.45;;;1.33;55.44
44872;BME280;30602;51.060;17.226;2023-02-28T08:45:57;103118.34;;;1.35;54.91
44872;BME280;30602;51.060;17.226;2023-02-28T08:49:39;103119.34;;;1.38;55.25
44872;BME280;30602;51.060;17.226;2023-02-28T08:53:00;103120.36;;;1.35;53.48
44872;BME280;30602;51.060;17.226;2023-02-28T08:56:55;103123.78;;;1.36;54.40
44872;BME280;30602;51.060;17.226;2023-02-28T09:00:49;103129.75;;;1.41;54.04
44872;BME280;30602;51.060;17.226;2023-02-28T09:04:11;103121.58;;;1.36;54.17
44872;BME280;30602;51.060;17.226;2023-02-28T09:07:46;103121.91;;;1.20;54.89
44872;BME280;30602;51.060;17.226;2023-02-28T09:11:10;103119.29;;;1.20;56.01
44872;BME280;30602;51.060;17.226;2023-02-28T09:14:29;103117.91;;;1.18;54.77
44872;BME280;30602;51.060;17.226;2023-02-28T09:18:28;103118.90;;;1.32;55.47
44872;BME280;30602;51.060;17.226;2023-02-28T09:22:09;103113.06;;;1.68;56.63
44872;BME280;30602;51.060;17.226;2023-02-28T09:25:55;103112.71;;;1.83;55.97
44872;BME280;30602;51.060;17.226;2023-02-28T09:29:38;103107.35;;;1.79;55.82
44872;BME280;30602;51.060;17.226;2023-02-28T09:34:03;103111.15;;;1.83;55.62
44872;BME280;30602;51.060;17.226;2023-02-28T09:42:05;103096.75;;;1.96;54.24
44872;BME280;30602;51.060;17.226;2023-02-28T09:46:05;103094.23;;;1.94;53.59
44872;BME280;30602;51.060;17.226;2023-02-28T09:49:42;103092.45;;;2.01;53.89
44872;BME280;30602;51.060;17.226;2023-02-28T09:53:49;103097.36;;;1.94;53.77
44872;BME280;30602;51.060;17.226;2023-02-28T09:57:39;103102.98;;;1.97;53.14
44872;BME280;30602;51.060;17.226;2023-02-28T10:05:20;103105.31;;;1.90;53.21
44872;BME280;30602;51.060;17.226;2023-02-28T10:09:27;103110.57;;;1.95;53.39
44872;BME280;30602;51.060;17.226;2023-02-28T10:12:54;103110.31;;;2.00;52.89
44872;BME280;30602;51.060;17.226;2023-02-28T10:24:44;103111.55;;;2.12;53.17
44872;BME280;30602;51.060;17.226;2023-02-28T10:29:09;103107.49;;;2.12;54.21
44872;BME280;30602;51.060;17.226;2023-02-28T10:33:01;103109.02;;;2.12;52.18
44872;BME280;30602;51.060;17.226;2023-02-28T10:36:24;103106.77;;;2.11;52.27
44872;BME280;30602;51.060;17.226;2023-02-28T10:44:13;103099.11;;;2.20;53.26
44872;BME280;30602;51.060;17.226;2023-02-28T10:48:33;103094.64;;;2.20;52.97
44872;BME280;30602;51.060;17.226;2023-02-28T10:52:33;103092.55;;;2.14;52.44
44872;BME280;30602;51.060;17.226;2023-02-28T10:56:02;103090.47;;;2.27;54.20
44872;BME280;30602;51.060;17.226;2023-02-28T10:59:30;103079.84;;;2.45;53.20
44872;BME280;30602;51.060;17.226;2023-02-28T11:03:28;103079.14;;;2.47;53.56
44872;BME280;30602;51.060;17.226;2023-02-28T11:07:21;103076.21;;;2.45;53.20
44872;BME280;30602;51.060;17.226;2023-02-28T11:11:05;103076.59;;;2.56;54.04
44872;BME280;30602;51.060;17.226;2023-02-28T11:22:29;103066.50;;;2.69;54.52
44872;BME280;30602;51.060;17.226;2023-02-28T11:25:54;103066.64;;;2.61;52.80
44872;BME280;30602;51.060;17.226;2023-02-28T11:29:28;103056.68;;;2.71;53.20
44872;BME280;30602;51.060;17.226;2023-02-28T11:32:49;103059.23;;;2.73;52.35
44872;BME280;30602;51.060;17.226;2023-02-28T11:36:31;103057.70;;;2.64;52.68
44872;BME280;30602;51.060;17.226;2023-02-28T11:52:19;103050.89;;;2.93;52.53
44872;BME280;30602;51.060;17.226;2023-02-28T11:56:39;103051.66;;;2.94;52.45
44872;BME280;30602;51.060;17.226;2023-02-28T12:00:36;103047.90;;;2.80;51.33
44872;BME280;30602;51.060;17.226;2023-02-28T12:16:20;103024.61;;;2.86;53.87
44872;BME280;30602;51.060;17.226;2023-02-28T12:20:17;103020.66;;;2.96;53.48
44872;BME280;30602;51.060;17.226;2023-02-28T12:24:00;103018.38;;;3.00;53.74
44872;BME280;30602;51.060;17.226;2023-02-28T12:27:46;103016.45;;;3.09;52.87
44872;BME280;30602;51.060;17.226;2023-02-28T12:35:25;103015.25;;;3.23;54.70
44872;BME280;30602;51.060;17.226;2023-02-28T12:39:18;102993.58;;;3.25;56.21
44872;BME280;30602;51.060;17.226;2023-02-28T12:43:15;103002.22;;;3.32;55.52
44872;BME280;30602;51.060;17.226;2023-02-28T12:47:28;102996.85;;;3.21;55.12
44872;BME280;30602;51.060;17.226;2023-02-28T12:50:54;102991.69;;;3.28;54.59
44872;BME280;30602;51.060;17.226;2023-02-28T12:58:29;102988.80;;;3.30;53.38
44872;BME280;30602;51.060;17.226;2023-02-28T13:10:16;102989.72;;;3.30;55.22
44872;BME280;30602;51.060;17.226;2023-02-28T13:17:58;102988.09;;;3.33;54.13
44872;BME280;30602;51.060;17.226;2023-02-28T13:21:48;102988.91;;;3.39;55.74
44872;BME280;30602;51.060;17.226;2023-02-28T13:29:38;102990.28;;;3.48;56.44
44872;BME280;30602;51.060;17.226;2023-02-28T13:36:45;102988.59;;;3.46;54.43
44872;BME280;30602;51.060;17.226;2023-02-28T13:40:42;102986.39;;;3.45;55.81
44872;BME280;30602;51.060;17.226;2023-02-28T13:57:23;102976.21;;;3.21;54.87
44872;BME280;30602;51.060;17.226;2023-02-28T14:05:35;102966.00;;;3.32;55.12
44872;BME280;30602;51.060;17.226;2023-02-28T14:09:48;102946.24;;;3.27;55.05
44872;BME280;30602;51.060;17.226;2023-02-28T14:17:37;102957.27;;;3.38;53.86
44872;BME280;30602;51.060;17.226;2023-02-28T14:21:22;102949.17;;;3.36;53.75
44872;BME280;30602;51.060;17.226;2023-02-28T14:37:43;102947.17;;;3.23;53.37
44872;BME280;30602;51.060;17.226;2023-02-28T14:41:41;102946.42;;;3.10;52.72
44872;BME280;30602;51.060;17.226;2023-02-28T14:45:54;102945.86;;;3.11;53.56
44872;BME280;30602;51.060;17.226;2023-02-28T14:49:31;102941.56;;;3.07;53.44
44872;BME280;30602;51.060;17.226;2023-02-28T14:53:18;102943.31;;;2.98;53.14
44872;BME280;30602;51.060;17.226;2023-02-28T14:57:01;102943.38;;;2.96;53.80
44872;BME280;30602;51.060;17.226;2023-02-28T15:01:00;102942.54;;;3.00;52.70
44872;BME280;30602;51.060;17.226;2023-02-28T15:09:13;102944.84;;;3.08;53.65
44872;BME280;30602;51.060;17.226;2023-02-28T15:13:23;102945.27;;;3.04;54.04
44872;BME280;30602;51.060;17.226;2023-02-28T15:17:03;102941.95;;;2.93;55.33
44872;BME280;30602;51.060;17.226;2023-02-28T15:21:32;102941.65;;;2.96;55.44
44872;BME280;30602;51.060;17.226;2023-02-28T15:29:01;102937.06;;;2.86;55.16
44872;BME280;30602;51.060;17.226;2023-02-28T15:32:44;102936.40;;;2.79;55.29
44872;BME280;30602;51.060;17.226;2023-02-28T15:36:18;102936.98;;;2.77;55.37
44872;BME280;30602;51.060;17.226;2023-02-28T15:43:38;102937.28;;;2.71;56.32
44872;BME280;30602;51.060;17.226;2023-02-28T15:51:58;102932.99;;;2.66;61.52
44872;BME280;30602;51.060;17.226;2023-02-28T15:55:56;102934.61;;;2.55;63.39
44872;BME280;30602;51.060;17.226;2023-02-28T16:00:12;102931.55;;;2.47;63.32
44872;BME280;30602;51.060;17.226;2023-02-28T16:04:19;102928.15;;;2.49;63.85
44872;BME280;30602;51.060;17.226;2023-02-28T16:08:19;102925.87;;;2.35;65.00
44872;BME280;30602;51.060;17.226;2023-02-28T16:12:00;102930.63;;;2.19;65.82
44872;BME280;30602;51.060;17.226;2023-02-28T16:16:02;102931.18;;;2.05;67.80
44872;BME280;30602;51.060;17.226;2023-02-28T16:20:27;102935.45;;;2.02;66.67
44872;BME280;30602;51.060;17.226;2023-02-28T16:24:07;102940.19;;;1.93;64.83
44872;BME280;30602;51.060;17.226;2023-02-28T16:28:00;102947.70;;;1.85;64.52
44872;BME280;30602;51.060;17.226;2023-02-28T16:31:45;102951.72;;;1.77;63.78
44872;BME280;30602;51.060;17.226;2023-02-28T16:39:17;102954.92;;;1.70;65.39
44872;BME280;30602;51.060;17.226;2023-02-28T16:43:01;102952.08;;;1.63;66.66
44872;BME280;30602;51.060;17.226;2023-02-28T16:46:34;102951.24;;;1.42;68.50
44872;BME280;30602;51.060;17.226;2023-02-28T16:50:25;102961.01;;;1.24;69.25
44872;BME280;30602;51.060;17.226;2023-02-28T16:54:14;102961.56;;;1.11;70.75
44872;BME280;30602;51.060;17.226;2023-02-28T16:57:58;102967.99;;;0.92;71.94
44872;BME280;30602;51.060;17.226;2023-02-28T17:01:23;102963.02;;;0.67;72.89
44872;BME280;30602;51.060;17.226;2023-02-28T17:05:22;102972.05;;;0.59;73.51
44872;BME280;30602;51.060;17.226;2023-02-28T17:08:50;102976.54;;;0.44;74.35
44872;BME280;30602;51.060;17.226;2023-02-28T17:12:13;102977.61;;;0.29;75.59
44872;BME280;30602;51.060;17.226;2023-02-28T17:16:17;102979.64;;;0.31;75.53
44872;BME280;30602;51.060;17.226;2023-02-28T17:19:47;102981.02;;;0.26;75.42
44872;BME280;30602;51.060;17.226;2023-02-28T17:23:16;102982.36;;;0.20;75.36
44872;BME280;30602;51.060;17.226;2023-02-28T17:26:59;102981.69;;;0.21;75.42
44872;BME280;30602;51.060;17.226;2023-02-28T17:30:39;102977.95;;;0.14;75.11
44872;BME280;30602;51.060;17.226;2023-02-28T17:34:05;102976.08;;;0.15;74.81
44872;BME280;30602;51.060;17.226;2023-02-28T17:37:32;102975.85;;;0.17;74.68
44872;BME280;30602;51.060;17.226;2023-02-28T17:41:21;102975.63;;;0.18;74.37
44872;BME280;30602;51.060;17.226;2023-02-28T17:44:47;102972.22;;;0.16;74.13
44872;BME280;30602;51.060;17.226;2023-02-28T17:48:11;102973.46;;;0.03;74.29
44872;BME280;30602;51.060;17.226;2023-02-28T17:51:51;102977.98;;;-0.07;74.45
44872;BME280;30602;51.060;17.226;2023-02-28T17:55:12;102976.56;;;-0.21;74.21
44872;BME280;30602;51.060;17.226;2023-02-28T17:59:09;102975.96;;;-0.19;73.96
44872;BME280;30602;51.060;17.226;2023-02-28T18:02:33;102982.25;;;-0.36;74.29
44872;BME280;30602;51.060;17.226;2023-02-28T18:06:24;102984.72;;;-0.49;74.74
44872;BME280;30602;51.060;17.226;2023-02-28T18:10:14;102988.56;;;-0.52;74.44
44872;BME280;30602;51.060;17.226;2023-02-28T18:13:48;102997.70;;;-0.62;74.56
44872;BME280;30602;51.060;17.226;2023-02-28T18:17:53;102999.37;;;-0.69;75.36
44872;BME280;30602;51.060;17.226;2023-02-28T18:21:16;103005.51;;;-0.78;75.87
44872;BME280;30602;51.060;17.226;2023-02-28T18:25:00;103005.90;;;-0.76;76.17
44872;BME280;30602;51.060;17.226;2023-02-28T18:29:18;103002.99;;;-0.68;74.83
44872;BME280;30602;51.060;17.226;2023-02-28T18:33:00;103000.11;;;-0.69;74.49
44872;BME280;30602;51.060;17.226;2023-02-28T18:36:57;103004.03;;;-0.69;74.22
44872;BME280;30602;51.060;17.226;2023-02-28T18:41:05;103005.98;;;-0.66;74.57
44872;BME280;30602;51.060;17.226;2023-02-28T18:44:46;103004.31;;;-0.65;73.74
44872;BME280;30602;51.060;17.226;2023-02-28T18:48:09;102998.62;;;-0.57;73.62
44872;BME280;30602;51.060;17.226;2023-02-28T18:51:55;103003.97;;;-0.61;73.50
44872;BME280;30602;51.060;17.226;2023-02-28T18:55:51;103001.22;;;-0.60;72.97
44872;BME280;30602;51.060;17.226;2023-02-28T18:59:13;102999.68;;;-0.55;72.64
44872;BME280;30602;51.060;17.226;2023-02-28T19:02:45;102999.68;;;-0.70;73.45
44872;BME280;30602;51.060;17.226;2023-02-28T19:06:17;103000.48;;;-0.68;73.48
44872;BME280;30602;51.060;17.226;2023-02-28T19:10:19;103002.41;;;-0.80;74.51
44872;BME280;30602;51.060;17.226;2023-02-28T19:13:44;103003.28;;;-0.99;75.74
44872;BME280;30602;51.060;17.226;2023-02-28T19:21:51;103002.80;;;-1.16;76.82
44872;BME280;30602;51.060;17.226;2023-02-28T19:25:27;103002.25;;;-1.19;77.42
44872;BME280;30602;51.060;17.226;2023-02-28T19:29:24;103004.77;;;-1.25;77.94
44872;BME280;30602;51.060;17.226;2023-02-28T19:33:09;103009.34;;;-1.28;78.16
44872;BME280;30602;51.060;17.226;2023-02-28T19:36:53;103007.66;;;-1.37;78.67
44872;BME280;30602;51.060;17.226;2023-02-28T19:40:42;103009.25;;;-1.39;78.78
44872;BME280;30602;51.060;17.226;2023-02-28T19:44:17;103011.76;;;-1.49;79.30
44872;BME280;30602;51.060;17.226;2023-02-28T19:47:45;103009.59;;;-1.46;79.33
44872;BME280;30602;51.060;17.226;2023-02-28T19:51:43;103010.35;;;-1.47;79.31
44872;BME280;30602;51.060;17.226;2023-02-28T19:55:33;103008.36;;;-1.52;79.34
44872;BME280;30602;51.060;17.226;2023-02-28T19:59:04;103013.04;;;-1.45;79.24
44872;BME280;30602;51.060;17.226;2023-02-28T20:02:29;103012.24;;;-1.47;79.44
44872;BME280;30602;51.060;17.226;2023-02-28T20:06:15;103008.94;;;-1.50;79.47
44872;BME280;30602;51.060;17.226;2023-02-28T20:09:59;103007.47;;;-1.61;80.01
44872;BME280;30602;51.060;17.226;2023-02-28T20:13:27;103012.13;;;-1.65;80.20
44872;BME280;30602;51.060;17.226;2023-02-28T20:17:16;103014.27;;;-1.77;80.24
44872;BME280;30602;51.060;17.226;2023-02-28T20:21:19;103009.62;;;-1.87;80.81
44872;BME280;30602;51.060;17.226;2023-02-28T20:25:20;103004.59;;;-1.79;80.50
44872;BME280;30602;51.060;17.226;2023-02-28T20:29:08;103006.91;;;-1.87;80.43
44872;BME280;30602;51.060;17.226;2023-02-28T20:32:53;103009.28;;;-2.06;80.94
44872;BME280;30602;51.060;17.226;2023-02-28T20:36:20;103015.02;;;-2.17;80.80
44872;BME280;30602;51.060;17.226;2023-02-28T20:39:46;103014.89;;;-2.22;81.06
44872;BME280;30602;51.060;17.226;2023-02-28T20:43:35;103009.29;;;-2.26;82.32
44872;BME280;30602;51.060;17.226;2023-02-28T20:47:15;103014.10;;;-2.28;82.30
44872;BME280;30602;51.060;17.226;2023-02-28T20:55:16;103015.52;;;-2.24;82.67
44872;BME280;30602;51.060;17.226;2023-02-28T20:59:33;103010.87;;;-2.34;82.43
44872;BME280;30602;51.060;17.226;2023-02-28T21:04:08;103016.16;;;-2.41;82.71
44872;BME280;30602;51.060;17.226;2023-02-28T21:07:59;103021.53;;;-2.62;82.40
44872;BME280;30602;51.060;17.226;2023-02-28T21:11:44;103025.26;;;-2.69;83.15
44872;BME280;30602;51.060;17.226;2023-02-28T21:15:30;103019.94;;;-2.65;83.70
44872;BME280;30602;51.060;17.226;2023-02-28T21:19:25;103014.50;;;-2.63;84.53
44872;BME280;30602;51.060;17.226;2023-02-28T21:23:13;103008.44;;;-2.58;84.74
44872;BME280;30602;51.060;17.226;2023-02-28T21:26:53;103010.34;;;-2.58;84.83
44872;BME280;30602;51.060;17.226;2023-02-28T21:30:40;103005.52;;;-2.63;85.02
44872;BME280;30602;51.060;17.226;2023-02-28T21:36:24;103010.92;;;-2.79;84.22
44872;BME280;30602;51.060;17.226;2023-02-28T21:40:06;103000.44;;;-2.95;83.89
44872;BME280;30602;51.060;17.226;2023-02-28T21:44:06;103014.54;;;-2.89;84.23
44872;BME280;30602;51.060;17.226;2023-02-28T21:47:56;103019.88;;;-3.05;83.76
44872;BME280;30602;51.060;17.226;2023-02-28T21:51:43;103016.02;;;-3.10;84.40
44872;BME280;30602;51.060;17.226;2023-02-28T21:55:35;103016.91;;;-3.00;85.10
44872;BME280;30602;51.060;17.226;2023-02-28T21:59:01;103013.13;;;-3.01;85.32
44872;BME280;30602;51.060;17.226;2023-02-28T22:02:30;103014.27;;;-3.02;85.76
44872;BME280;30602;51.060;17.226;2023-02-28T22:06:14;103013.52;;;-3.08;86.02
44872;BME280;30602;51.060;17.226;2023-02-28T22:09:49;103020.46;;;-3.11;85.89
44872;BME280;30602;51.060;17.226;2023-02-28T22:13:51;103016.70;;;-3.22;85.62
44872;BME280;30602;51.060;17.226;2023-02-28T22:17:37;103021.58;;;-3.25;85.99
44872;BME280;30602;51.060;17.226;2023-02-28T22:21:16;103011.72;;;-3.37;86.24
44872;BME280;30602;51.060;17.226;2023-02-28T22:24:55;103027.76;;;-3.35;86.24
44872;BME280;30602;51.060;17.226;2023-02-28T22:28:22;103026.69;;;-3.38;86.67
44872;BME280;30602;51.060;17.226;2023-02-28T22:31:44;103032.49;;;-3.40;87.08
44872;BME280;30602;51.060;17.226;2023-02-28T22:35:18;103036.40;;;-3.50;86.72
44872;BME280;30602;51.060;17.226;2023-02-28T22:38:58;103041.62;;;-3.62;85.94
44872;BME280;30602;51.060;17.226;2023-02-28T22:42:49;103053.84;;;-3.62;86.76
44872;BME280;30602;51.060;17.226;2023-02-28T22:46:33;103034.91;;;-3.63;88.09
44872;BME280;30602;51.060;17.226;2023-02-28T22:50:02;103042.86;;;-3.56;88.16
44872;BME280;30602;51.060;17.226;2023-02-28T22:53:43;103038.05;;;-3.60;87.52
44872;BME280;30602;51.060;17.226;2023-02-28T22:57:12;103055.62;;;-3.56;87.15